Airfield :
LOGIN :

Register | Disclaimer

   EN    FR    IT 

 










Legend :    VFR   Marginal VFR   IFR   Intensive IFR   Very Intensive IFR
Visi :
Ceiling :
>= 8 km
>= 3000ft
5 to 8 km
1000 to 3000 ft
1500m to 5 km
500 to 1000 ft
800 to 1500m
200 to 500 ft
< 800m
< 200 ft
Symbols :   Thunderstorms  Fog  Heavy snow  Heavy precipitations  Wind > 20 kt
SIGMETs :     Misc.  Thunderstorms  Icing  Turbulence  Mountain Waves  Volcanic Ashes






- Airport Elevation : 257 ft
- IATA code : MAN


EGCC - Manchester

CURRENT METAR :
  • 131750Z AUTO 09005KT 060V140 9999 NCD 04/02 Q0993

EXPIRED METARs :
  • 131720Z AUTO VRB03KT 9999 NCD 04/02 Q0993
  • 131650Z AUTO VRB03KT 9999 NCD 04/02 Q0993 NOSIG
  • 131620Z AUTO VRB02KT 9999 NCD 05/02 Q0993 NOSIG
  • 131550Z AUTO VRB03KT 9999 FEW030 06/03 Q0993 NOSIG
  • 131520Z VRB02KT 9999 FEW027 06/03 Q0994 NOSIG

TAF TAF EGCC
Valid from the 13 at 18:00 until the 15 at 00:00 UTC


131656Z 1318/1424 VRB05KT 9999 BKN030
BECMG 1318/1321 09010KT
BECMG 1403/1406 36010KT
PROB40
TEMPO 1409/1419 02016G26KT
PROB40
TEMPO 1418/1424 7000 SHRA BKN014
ATIS : +44 161 499 2324



MET'MAP, your aeronautical weather chart ! - Copyright ORBIFLY December 2007 - Disclaimer

ORBIFLY MET'MAP TEAM :

Programming & Development : Alexandra Zaïnal
Concept & Development : Baudouin d'Aumeries
Co-Development & Prog : Marc-Olivier Méhu
Technical & hardware support : Manuel Goepfert

Contact : metmap@orbifly.com




SOURCES & CREDITS :

   NOAA